ADDS METAR Data INFO
IDs: Format: Raw Decoded Include TAF

Data at: 1506 UTC 11 Dec 2017

KMRY 111454Z 00000KT 10SM OVC060 10/M08 A3023 RMK AO2 SLP247 T01001078 53006
KMRY 111354Z 26003KT 10SM OVC060 12/M08 A3021 RMK AO2 SLP242 T01171083
KMRY 111254Z AUTO 11005KT 10SM BKN049 12/M08 A3020 RMK AO2 SLP239 T01221078 TSNO
KMRY 111154Z AUTO 00000KT 10SM CLR 13/M08 A3021 RMK AO2 SLP240 T01281083 10156 20117 51005 TSNO
KMRY 111054Z AUTO 09004KT 10SM CLR 14/M08 A3020 RMK AO2 SLP239 T01441083 TSNO
KMRY 110954Z AUTO 10009KT 10SM CLR 14/M08 A3020 RMK AO2 SLP237 T01441083 TSNO
KMRY 110854Z AUTO 00000KT 10SM CLR 13/M08 A3019 RMK AO2 SLP234 T01331083 51003 TSNO
KMRY 110754Z AUTO 06004KT 10SM CLR 14/M08 A3019 RMK AO2 SLP234 T01391078 402500050 TSNO
KMRY 110654Z AUTO 06005KT 10SM CLR 14/M08 A3019 RMK AO2 SLP234 T01441078 TSNO
KMRY 110554Z AUTO 07005KT 10SM CLR 13/M07 A3018 RMK AO2 SLP232 T01331072 10217 20100 51008 TSNO
KMRY 110454Z AUTO 09011KT 10SM CLR 13/M06 A3017 RMK AO2 SLP230 T01331056 TSNO
KMRY 110354Z 11003KT 10SM CLR 11/M03 A3017 RMK AO2 SLP228 T01111033
KMRY 110254Z 09005KT 10SM CLR 13/M04 A3016 RMK AO2 SLP225 T01281044 53005
KMRY 110154Z 08006KT 10SM CLR 14/M04 A3015 RMK AO2 SLP222 T01441039
KMRY 110054Z 12004KT 10SM CLR 17/01 A3015 RMK AO2 SLP221 T01720011
KMRY 102354Z 00000KT 10SM CLR 22/02 A3014 RMK AO2 SLP219 T02170022 10250 20172 56010
KMRY 102254Z 24003KT 10SM CLR 24/M01 A3015 RMK AO2 SLP219 T02441011
KMRY 102154Z 24005KT 10SM CLR 24/M01 A3016 RMK AO2 SLP224 T02441011
KMRY 102054Z 00000KT 10SM CLR 24/01 A3017 RMK AO2 SLP229 T02440006 58021
KMRY 101954Z 24003KT 10SM CLR 23/M01 A3020 RMK AO2 SLP239 T02281011
KMRY 101854Z 25003KT 10SM CLR 19/01 A3023 RMK AO2 SLP247 T01940006
KMRY 101754Z 00000KT 10SM CLR 17/M02 A3024 RMK AO2 SLP251 T01721022 10172 20050 52006
KMRY 101654Z 00000KT 10SM CLR 13/M04 A3023 RMK AO2 SLP250 T01331039
KMRY 101554Z 11007KT 10SM CLR 11/M07 A3022 RMK AO2 SLP247 T01111072
KMRY 101454Z 00000KT 10SM CLR 08/M06 A3022 RMK AO2 SLP245 T00781061 53001
KMRY 101354Z AUTO 00000KT 10SM CLR 06/M05 A3021 RMK AO2 SLP245 T00611050 TSNO
KMRY 101254Z AUTO 11004KT 10SM CLR 07/M04 A3021 RMK AO2 SLP242 T00671044 TSNO
KMRY 101154Z AUTO 10004KT 10SM CLR 07/M04 A3021 RMK AO2 SLP243 T00671039 10100 20056 57003 TSNO
KMRY 101054Z AUTO 09003KT 10SM CLR 06/M03 A3021 RMK AO2 SLP243 T00611033 TSNO
KMRY 100954Z AUTO 11004KT 10SM CLR 07/M03 A3022 RMK AO2 SLP245 T00671033 TSNO
KMRY 100854Z AUTO 12004KT 10SM CLR 07/M02 A3022 RMK AO2 SLP245 T00671022 58004 TSNO
KMRY 100754Z AUTO 10003KT 10SM CLR 08/M02 A3023 RMK AO2 SLP249 T00781022 402500039 TSNO
KMRY 100654Z AUTO 10003KT 10SM CLR 08/M02 A3023 RMK AO2 SLP250 T00831017 TSNO
KMRY 100554Z AUTO 09005KT 10SM CLR 08/M01 A3023 RMK AO2 SLP251 T00781011 10244 20078 51004 TSNO
KMRY 100454Z 10003KT 10SM CLR 09/M01 A3023 RMK AO2 SLP251 T00891006
KMRY 100354Z 12004KT 10SM CLR 10/00 A3022 RMK AO2 SLP248 T01000000